createdAt,value
2022-10-22T00:00:56.862Z,5.20
2022-10-22T00:03:26.040Z,4.20
2022-10-22T00:05:54.049Z,5.15
2022-10-22T00:08:21.983Z,4.68
2022-10-22T00:10:49.860Z,4.47
2022-10-22T00:13:17.911Z,4.22
2022-10-22T00:15:45.657Z,3.20
2022-10-22T00:18:13.495Z,4.60
2022-10-22T00:20:43.345Z,4.85
2022-10-22T00:23:11.113Z,5.47
2022-10-22T00:25:38.971Z,4.95
2022-10-22T00:28:06.861Z,4.78
2022-10-22T00:30:34.882Z,4.90
2022-10-22T00:33:02.587Z,5.05
2022-10-22T00:35:30.444Z,5.25
2022-10-22T00:37:59.575Z,4.80
2022-10-22T00:40:27.557Z,4.07
2022-10-22T00:42:55.938Z,4.40
2022-10-22T00:45:25.669Z,4.85
2022-10-22T00:47:58.525Z,4.07
2022-10-22T00:50:31.056Z,4.35
2022-10-22T00:53:01.326Z,4.43
2022-10-22T00:55:30.657Z,3.75
2022-10-22T00:58:00.840Z,4.68
2022-10-22T01:00:29.132Z,4.82
2022-10-22T01:02:58.311Z,5.30
2022-10-22T01:05:29.879Z,5.43
2022-10-22T01:07:58.115Z,4.82
2022-10-22T01:10:39.873Z,4.90
2022-10-22T01:13:18.581Z,5.73
2022-10-22T01:15:54.845Z,4.70
2022-10-22T01:18:30.043Z,5.28
2022-10-22T01:21:07.984Z,5.20
2022-10-22T01:24:20.483Z,5.13
2022-10-22T01:27:14.271Z,4.38
2022-10-22T01:29:48.525Z,4.60
2022-10-22T01:32:19.004Z,4.35
2022-10-22T01:34:51.528Z,4.60
2022-10-22T01:37:22.826Z,4.88
2022-10-22T01:39:51.672Z,4.63
2022-10-22T01:42:19.585Z,5.43
2022-10-22T01:44:50.154Z,5.40
2022-10-22T01:47:27.438Z,5.20
2022-10-22T01:50:12.961Z,5.22
2022-10-22T01:52:53.547Z,5.88
2022-10-22T01:55:29.901Z,4.13
2022-10-22T01:58:06.996Z,5.15
2022-10-22T02:00:40.194Z,4.93
2022-10-22T02:03:17.451Z,3.92
2022-10-22T02:05:52.060Z,3.75
2022-10-22T02:08:23.213Z,3.85
2022-10-22T02:10:51.964Z,4.22
2022-10-22T02:13:25.971Z,3.63
2022-10-22T02:15:56.957Z,4.60
2022-10-22T02:18:29.075Z,3.45
2022-10-22T02:20:57.885Z,4.10
2022-10-22T02:23:25.795Z,5.07
2022-10-22T02:25:59.920Z,4.68
2022-10-22T02:28:37.116Z,4.50
2022-10-22T02:31:14.269Z,4.80
2022-10-22T02:33:46.944Z,4.97
2022-10-22T02:38:45.393Z,4.25
2022-10-22T02:41:13.181Z,5.30
2022-10-22T02:43:43.076Z,4.03
2022-10-22T02:46:12.775Z,4.13
2022-10-22T02:48:40.552Z,4.18
2022-10-22T02:51:08.382Z,4.28
2022-10-22T02:53:36.629Z,5.38
2022-10-22T02:56:04.645Z,4.50
2022-10-22T02:58:32.709Z,5.05
2022-10-22T03:01:00.675Z,4.93
2022-10-22T03:03:29.808Z,4.82
2022-10-22T03:05:57.645Z,5.32
2022-10-22T03:08:25.527Z,4.70
2022-10-22T03:10:53.365Z,4.05
2022-10-22T03:13:21.177Z,4.88
2022-10-22T03:15:50.293Z,4.35
2022-10-22T03:18:18.628Z,4.68
2022-10-22T03:20:47.799Z,4.43
2022-10-22T03:23:18.716Z,4.43
2022-10-22T03:25:49.302Z,4.63
2022-10-22T03:28:19.635Z,4.28
2022-10-22T03:30:47.423Z,3.60
2022-10-22T03:33:15.240Z,3.90
2022-10-22T03:35:47.262Z,4.38
2022-10-22T03:38:17.112Z,4.55
2022-10-22T03:40:46.924Z,4.85
2022-10-22T03:43:14.835Z,3.70
2022-10-22T03:45:42.631Z,5.10
2022-10-22T03:48:10.447Z,4.47
2022-10-22T03:50:38.257Z,4.38
2022-10-22T03:53:07.171Z,4.13
2022-10-22T03:55:38.080Z,4.90
2022-10-22T03:58:05.910Z,5.03
2022-10-22T04:00:33.804Z,4.47
2022-10-22T04:03:01.539Z,4.93
2022-10-22T04:05:29.328Z,4.50
2022-10-22T04:07:57.152Z,4.50
2022-10-22T04:10:24.920Z,4.05
2022-10-22T04:12:54.370Z,4.45
2022-10-22T04:15:22.277Z,4.45
2022-10-22T04:17:50.005Z,4.72
2022-10-22T04:20:18.010Z,4.68
2022-10-22T04:22:45.830Z,4.45
2022-10-22T04:25:13.559Z,4.93
2022-10-22T04:27:41.531Z,4.85
2022-10-22T04:30:12.213Z,5.55
2022-10-22T04:32:39.984Z,5.55
2022-10-22T04:35:08.688Z,6.10
2022-10-22T04:37:36.572Z,6.10
2022-10-22T04:40:05.254Z,6.03
2022-10-22T04:42:33.243Z,5.85
2022-10-22T04:45:01.050Z,5.35
2022-10-22T04:47:30.172Z,6.43
2022-10-22T04:49:58.043Z,5.35
2022-10-22T04:52:25.751Z,5.78
2022-10-22T04:54:53.535Z,5.25
2022-10-22T04:57:21.289Z,5.22
2022-10-22T04:59:49.080Z,5.15
2022-10-22T05:02:16.927Z,5.68
2022-10-22T05:04:46.353Z,6.07
2022-10-22T05:07:14.152Z,6.00
2022-10-22T05:09:42.163Z,5.95
2022-10-22T05:12:10.028Z,5.55
2022-10-22T05:14:41.395Z,6.13
2022-10-22T05:17:11.768Z,5.82
2022-10-22T05:19:39.660Z,5.55
2022-10-22T05:22:08.776Z,5.88
2022-10-22T05:24:37.148Z,5.43
2022-10-22T05:27:05.066Z,5.60
2022-10-22T05:29:32.926Z,5.25
2022-10-22T05:32:00.679Z,5.55
2022-10-22T05:34:28.490Z,5.38
2022-10-22T05:36:56.219Z,5.25
2022-10-22T05:39:25.447Z,4.78
2022-10-22T05:41:53.903Z,4.75
2022-10-22T05:44:21.775Z,4.38
2022-10-22T05:46:49.582Z,3.45
2022-10-22T05:49:17.451Z,6.20
2022-10-22T05:51:45.355Z,4.72
2022-10-22T05:54:18.876Z,5.35
2022-10-22T05:56:48.078Z,5.03
2022-10-22T05:59:15.786Z,4.80
2022-10-22T06:01:43.698Z,4.85
2022-10-22T06:04:13.410Z,4.05
2022-10-22T06:06:43.839Z,3.70
2022-10-22T06:09:16.778Z,4.10
2022-10-22T06:11:44.899Z,4.82
2022-10-22T06:14:14.463Z,4.60
2022-10-22T06:16:43.287Z,5.35
2022-10-22T06:19:12.482Z,4.88
2022-10-22T06:21:40.647Z,4.55
2022-10-22T06:24:09.225Z,4.95
2022-10-22T06:26:37.107Z,4.82
2022-10-22T06:29:05.156Z,4.93
2022-10-22T06:31:36.835Z,4.25
2022-10-22T06:34:04.830Z,3.57
2022-10-22T06:36:32.777Z,4.80
2022-10-22T06:39:00.631Z,4.90
2022-10-22T06:41:28.919Z,4.25
2022-10-22T06:43:58.339Z,3.95
2022-10-22T06:46:27.002Z,4.80
2022-10-22T06:48:57.610Z,5.43
2022-10-22T06:51:26.173Z,4.65
2022-10-22T06:53:54.510Z,4.55
2022-10-22T06:56:24.314Z,4.20
2022-10-22T06:58:53.309Z,4.00
2022-10-22T07:01:22.848Z,5.00
2022-10-22T07:03:52.197Z,4.22
2022-10-22T07:06:22.454Z,5.25
2022-10-22T07:08:50.459Z,5.03
2022-10-22T07:11:20.419Z,5.28
2022-10-22T07:13:48.931Z,5.18
2022-10-22T07:16:17.785Z,4.78
2022-10-22T07:18:46.291Z,5.50
2022-10-22T07:21:16.577Z,6.00
2022-10-22T07:23:45.988Z,5.40
2022-10-22T07:26:16.682Z,6.35
2022-10-22T07:28:44.794Z,6.15
2022-10-22T07:31:14.342Z,6.07
2022-10-22T07:33:42.274Z,7.07
2022-10-22T07:36:17.362Z,6.25
2022-10-22T07:38:47.806Z,5.35
2022-10-22T07:41:16.736Z,5.72
2022-10-22T07:43:44.902Z,7.10
2022-10-22T07:46:12.715Z,6.22
2022-10-22T07:48:40.877Z,6.97
2022-10-22T07:51:08.977Z,9.07
2022-10-22T07:53:36.893Z,9.60
2022-10-22T07:56:06.706Z,9.38
2022-10-22T07:58:35.276Z,9.50
2022-10-22T08:01:05.647Z,9.20
2022-10-22T08:03:33.994Z,8.80
2022-10-22T08:06:02.251Z,9.38
2022-10-22T08:08:31.020Z,8.65
2022-10-22T08:11:02.094Z,8.55
2022-10-22T08:13:31.991Z,10.57
2022-10-22T08:16:01.258Z,9.70
2022-10-22T08:18:30.083Z,10.25
2022-10-22T08:20:58.445Z,9.57
2022-10-22T08:23:28.745Z,10.65
2022-10-22T08:25:57.618Z,10.50
2022-10-22T08:28:25.754Z,10.32
2022-10-22T08:30:54.913Z,10.73
2022-10-22T08:33:23.038Z,8.82
2022-10-22T08:35:51.895Z,8.57
2022-10-22T08:38:20.260Z,8.10
2022-10-22T08:40:54.230Z,9.50
2022-10-22T08:43:42.693Z,8.73
2022-10-22T08:46:32.228Z,8.63
2022-10-22T08:49:03.052Z,7.38
2022-10-22T08:51:36.322Z,6.82
2022-10-22T08:54:18.063Z,6.38
2022-10-22T08:56:48.988Z,5.95
2022-10-22T08:59:22.266Z,5.45
2022-10-22T09:01:54.604Z,5.55
2022-10-22T09:04:29.576Z,5.20
2022-10-22T09:06:59.873Z,4.68
2022-10-22T09:09:34.061Z,4.88
2022-10-22T09:12:03.578Z,4.47
2022-10-22T09:14:31.669Z,3.78
2022-10-22T09:17:17.359Z,3.08
2022-10-22T09:19:59.378Z,3.10
2022-10-22T09:22:38.477Z,2.60
2022-10-22T09:25:23.924Z,2.65
2022-10-22T09:27:58.701Z,2.30
2022-10-22T09:30:30.416Z,2.25
2022-10-22T09:33:04.082Z,2.30
2022-10-22T09:35:35.914Z,2.25
2022-10-22T09:38:09.715Z,2.80
2022-10-22T09:40:44.881Z,2.03
2022-10-22T09:43:15.247Z,2.70
2022-10-22T09:45:44.494Z,2.90
2022-10-22T09:48:21.502Z,2.92
2022-10-22T09:50:50.996Z,2.67
2022-10-22T09:53:21.022Z,2.58
2022-10-22T09:58:27.907Z,3.03
2022-10-22T10:00:58.075Z,2.55
2022-10-22T10:03:29.691Z,2.70
2022-10-22T10:06:03.051Z,2.47
2022-10-22T10:08:34.330Z,3.28
2022-10-22T10:11:07.151Z,2.70
2022-10-22T10:13:51.824Z,3.03
2022-10-22T10:16:42.568Z,2.47
2022-10-22T10:19:57.799Z,3.00
2022-10-22T10:22:49.551Z,2.67
2022-10-22T10:25:32.721Z,2.67
2022-10-22T10:28:18.256Z,2.63
2022-10-22T10:30:54.524Z,2.38
2022-10-22T10:33:46.531Z,2.67
2022-10-22T10:36:25.989Z,2.70
2022-10-22T10:39:01.105Z,2.60
2022-10-22T10:41:46.778Z,2.40
2022-10-22T10:44:31.641Z,2.70
2022-10-22T10:47:09.793Z,2.42
2022-10-22T10:49:38.282Z,2.90
2022-10-22T10:52:21.286Z,2.65
2022-10-22T10:55:04.485Z,2.67
2022-10-22T10:57:44.718Z,2.30
2022-10-22T11:00:17.077Z,2.75
2022-10-22T11:03:12.946Z,2.38
2022-10-22T11:05:45.101Z,2.30
2022-10-22T11:08:20.633Z,2.17
2022-10-22T11:10:52.874Z,2.20
2022-10-22T11:13:27.111Z,2.53
2022-10-22T11:16:01.935Z,2.42
2022-10-22T11:18:35.424Z,2.45
2022-10-22T11:21:12.417Z,2.22
2022-10-22T11:23:47.146Z,2.38
2022-10-22T11:26:30.367Z,1.92
2022-10-22T11:29:02.491Z,2.20
2022-10-22T11:31:33.173Z,2.00
2022-10-22T11:34:32.048Z,2.05
2022-10-22T11:36:58.418Z,2.00
2022-10-22T11:39:42.280Z,1.92
2022-10-22T11:42:13.909Z,2.10
2022-10-22T11:47:34.248Z,2.17
2022-10-22T11:50:19.763Z,1.88
2022-10-22T11:52:55.277Z,1.85
2022-10-22T11:55:47.883Z,2.08
2022-10-22T11:58:32.105Z,1.65
2022-10-22T12:01:19.726Z,1.85
2022-10-22T12:03:51.334Z,2.08
2022-10-22T12:06:23.052Z,2.07
2022-10-22T12:09:00.414Z,1.90
2022-10-22T12:11:38.325Z,1.70
2022-10-22T12:14:26.740Z,1.70
2022-10-22T12:16:58.788Z,2.03
2022-10-22T12:19:30.821Z,1.80
2022-10-22T12:22:01.210Z,2.10
2022-10-22T12:24:34.119Z,2.05
2022-10-22T12:27:03.383Z,2.33
2022-10-22T12:29:33.967Z,2.05
2022-10-22T12:32:05.113Z,1.95
2022-10-22T12:34:32.891Z,2.50
2022-10-22T12:37:00.739Z,2.00
2022-10-22T12:39:29.957Z,2.30
2022-10-22T12:41:57.755Z,2.10
2022-10-22T12:44:26.866Z,2.25
2022-10-22T12:46:57.064Z,2.20
2022-10-22T12:49:35.230Z,2.13
2022-10-22T12:52:07.733Z,1.80
2022-10-22T12:54:39.133Z,2.20
2022-10-22T12:57:07.156Z,1.55
2022-10-22T12:59:38.845Z,1.70
2022-10-22T13:02:18.527Z,1.60
2022-10-22T13:05:16.158Z,2.10
2022-10-22T13:07:47.823Z,2.10
2022-10-22T13:10:21.288Z,1.87
2022-10-22T13:12:55.459Z,1.85
2022-10-22T13:15:35.704Z,1.70
2022-10-22T13:18:05.872Z,2.30
2022-10-22T13:20:37.250Z,2.00
2022-10-22T13:23:06.384Z,1.83
2022-10-22T13:25:37.238Z,2.22
2022-10-22T13:28:21.907Z,1.85
2022-10-22T13:30:56.024Z,1.95
2022-10-22T13:33:27.263Z,2.47
2022-10-22T13:35:56.200Z,2.05
2022-10-22T13:38:26.454Z,1.75
2022-10-22T13:40:54.577Z,1.60
2022-10-22T13:43:23.278Z,1.60
2022-10-22T13:45:56.562Z,1.80
2022-10-22T13:48:26.466Z,1.52
2022-10-22T13:50:54.795Z,1.75
2022-10-22T13:53:25.296Z,1.70
2022-10-22T13:55:53.408Z,1.73
2022-10-22T13:58:24.465Z,2.03
2022-10-22T14:00:57.079Z,1.70
2022-10-22T14:03:29.321Z,1.77
2022-10-22T14:05:57.860Z,1.77
2022-10-22T14:08:26.714Z,1.73
2022-10-22T14:10:54.748Z,1.70
2022-10-22T14:13:22.899Z,1.85
2022-10-22T14:15:52.931Z,1.45
2022-10-22T14:18:27.380Z,1.38
2022-10-22T14:20:57.201Z,1.90
2022-10-22T14:23:27.977Z,1.55
2022-10-22T14:25:56.223Z,1.30
2022-10-22T14:28:24.141Z,1.25
2022-10-22T14:30:53.024Z,1.20
2022-10-22T14:33:28.787Z,1.38
2022-10-22T14:35:58.321Z,1.10
2022-10-22T14:38:26.221Z,1.10
2022-10-22T14:40:53.961Z,1.17
2022-10-22T14:43:24.985Z,1.50
2022-10-22T14:45:53.124Z,1.13
2022-10-22T14:48:22.464Z,1.17
2022-10-22T14:50:50.608Z,1.20
2022-10-22T14:53:18.495Z,1.13
2022-10-22T14:55:47.372Z,1.30
2022-10-22T14:58:15.726Z,1.10
2022-10-22T15:00:44.797Z,1.27
2022-10-22T15:03:12.802Z,1.50
2022-10-22T15:05:44.413Z,1.25
2022-10-22T15:08:13.890Z,1.20
2022-10-22T15:10:41.855Z,1.00
2022-10-22T15:13:09.758Z,1.10
2022-10-22T15:15:39.901Z,1.15
2022-10-22T15:18:08.288Z,1.30
2022-10-22T15:20:36.144Z,1.15
2022-10-22T15:23:05.374Z,1.00
2022-10-22T15:25:33.136Z,1.00
2022-10-22T15:28:09.192Z,1.10
2022-10-22T15:30:37.861Z,1.30
2022-10-22T15:33:06.526Z,0.90
2022-10-22T15:35:34.515Z,1.20
2022-10-22T15:38:02.224Z,0.93
2022-10-22T15:40:31.346Z,0.90
2022-10-22T15:42:59.163Z,1.30
2022-10-22T15:45:26.953Z,1.23
2022-10-22T15:47:54.766Z,1.20
2022-10-22T15:50:22.773Z,1.30
2022-10-22T15:52:50.790Z,1.25
2022-10-22T15:55:18.854Z,1.38
2022-10-22T15:57:54.783Z,1.30
2022-10-22T16:00:24.933Z,1.30
2022-10-22T16:02:54.912Z,1.50
2022-10-22T16:05:22.776Z,1.50
2022-10-22T16:07:51.414Z,1.30
2022-10-22T16:10:19.368Z,1.15
2022-10-22T16:12:51.411Z,1.50
2022-10-22T16:15:19.549Z,1.40
2022-10-22T16:17:47.315Z,1.70
2022-10-22T16:20:15.104Z,1.70
2022-10-22T16:22:43.336Z,2.33
2022-10-22T16:25:11.298Z,3.22
2022-10-22T16:27:39.254Z,1.70
2022-10-22T16:30:09.180Z,1.75
2022-10-22T16:32:36.998Z,1.70
2022-10-22T16:35:05.081Z,2.00
2022-10-22T16:37:32.847Z,2.08
2022-10-22T16:40:04.387Z,1.60
2022-10-22T16:42:36.132Z,1.65
2022-10-22T16:45:04.338Z,1.85
2022-10-22T16:47:33.523Z,1.58
2022-10-22T16:50:01.311Z,1.50
2022-10-22T16:52:29.400Z,1.85
2022-10-22T16:54:58.086Z,1.67
2022-10-22T16:57:25.949Z,1.85
2022-10-22T16:59:53.919Z,1.88
2022-10-22T17:02:21.888Z,1.70
2022-10-22T17:04:51.146Z,1.73
2022-10-22T17:07:18.920Z,1.90
2022-10-22T17:09:46.703Z,2.00
2022-10-22T17:12:14.689Z,2.45
2022-10-22T17:14:42.541Z,2.60
2022-10-22T17:17:10.293Z,2.72
2022-10-22T17:19:38.809Z,2.50
2022-10-22T17:22:08.024Z,2.83
2022-10-22T17:24:36.148Z,2.25
2022-10-22T17:29:37.110Z,2.58
2022-10-22T17:32:05.005Z,2.47
2022-10-22T17:34:33.515Z,2.50
2022-10-22T17:37:01.343Z,2.65
2022-10-22T17:39:30.510Z,2.03
2022-10-22T17:41:58.426Z,2.20
2022-10-22T17:44:26.185Z,1.95
2022-10-22T17:46:53.978Z,2.72
2022-10-22T17:49:21.943Z,2.20
2022-10-22T17:51:49.857Z,2.60
2022-10-22T17:54:17.733Z,2.07
2022-10-22T17:56:46.976Z,2.53
2022-10-22T17:59:17.047Z,2.42
2022-10-22T18:01:47.846Z,3.28
2022-10-22T18:04:17.905Z,3.15
2022-10-22T18:06:46.705Z,2.97
2022-10-22T18:09:18.420Z,2.80
2022-10-22T18:11:49.055Z,3.38
2022-10-22T18:14:18.710Z,2.83
2022-10-22T18:16:47.411Z,3.00
2022-10-22T18:19:16.879Z,3.60
2022-10-22T18:21:44.923Z,3.03
2022-10-22T18:24:15.064Z,3.60
2022-10-22T18:26:43.263Z,3.53
2022-10-22T18:29:15.459Z,3.00
2022-10-22T18:31:43.795Z,3.20
2022-10-22T18:34:11.941Z,3.40
2022-10-22T18:36:41.424Z,3.53
2022-10-22T18:39:09.383Z,3.28
2022-10-22T18:41:37.683Z,3.80
2022-10-22T18:44:07.904Z,3.45
2022-10-22T18:46:38.380Z,3.58
2022-10-22T18:49:08.026Z,3.72
2022-10-22T18:51:36.533Z,4.13
2022-10-22T18:54:18.276Z,3.85
2022-10-22T18:56:50.408Z,4.13
2022-10-22T18:59:19.614Z,3.83
2022-10-22T19:01:49.591Z,3.00
2022-10-22T19:04:17.432Z,3.90
2022-10-22T19:06:46.036Z,3.83
2022-10-22T19:09:14.808Z,3.70
2022-10-22T19:11:43.869Z,3.97
2022-10-22T19:14:11.853Z,3.85
2022-10-22T19:16:39.649Z,3.78
2022-10-22T19:19:09.229Z,3.90
2022-10-22T19:21:38.321Z,3.85
2022-10-22T19:24:06.955Z,3.60
2022-10-22T19:26:35.318Z,4.15
2022-10-22T19:29:04.869Z,4.03
2022-10-22T19:31:32.903Z,3.17
2022-10-22T19:34:02.197Z,3.85
2022-10-22T19:36:34.334Z,3.45
2022-10-22T19:39:03.525Z,2.97
2022-10-22T19:41:32.524Z,3.30
2022-10-22T19:44:01.557Z,3.45
2022-10-22T19:46:32.406Z,3.55
2022-10-22T19:49:00.535Z,3.50
2022-10-22T19:51:30.805Z,3.67
2022-10-22T19:54:01.088Z,3.90
2022-10-22T19:56:29.684Z,2.75
2022-10-22T19:58:57.731Z,3.20
2022-10-22T20:01:26.115Z,3.60
2022-10-22T20:03:54.654Z,3.60
2022-10-22T20:06:22.876Z,3.95
2022-10-22T20:08:53.897Z,3.33
2022-10-22T20:11:27.384Z,2.95
2022-10-22T20:13:56.524Z,3.50
2022-10-22T20:16:28.662Z,3.08
2022-10-22T20:19:00.785Z,3.28
2022-10-22T20:21:28.984Z,3.40
2022-10-22T20:23:57.474Z,3.33
2022-10-22T20:26:28.844Z,3.50
2022-10-22T20:28:57.431Z,3.40
2022-10-22T20:31:27.069Z,3.80
2022-10-22T20:33:57.377Z,3.75
2022-10-22T20:36:27.178Z,3.50
2022-10-22T20:39:00.792Z,2.72
2022-10-22T20:41:30.880Z,3.47
2022-10-22T20:43:58.814Z,2.80
2022-10-22T20:46:29.590Z,3.00
2022-10-22T20:49:02.211Z,2.90
2022-10-22T20:53:57.743Z,2.97
2022-10-22T20:56:25.951Z,3.03
2022-10-22T20:59:04.231Z,3.17
2022-10-22T21:01:34.047Z,2.92
2022-10-22T21:04:01.787Z,3.35
2022-10-22T21:06:30.272Z,3.28
2022-10-22T21:08:58.154Z,2.85
2022-10-22T21:11:26.095Z,3.03
2022-10-22T21:13:55.245Z,2.30
2022-10-22T21:16:23.037Z,3.00
2022-10-22T21:18:50.826Z,2.75
2022-10-22T21:21:19.941Z,2.72
2022-10-22T21:23:50.104Z,2.83
2022-10-22T21:26:18.196Z,2.92
2022-10-22T21:28:46.149Z,3.65
2022-10-22T21:31:21.597Z,3.13
2022-10-22T21:33:50.444Z,3.00
2022-10-22T21:36:22.751Z,3.17
2022-10-22T21:38:52.077Z,3.15
2022-10-22T21:41:21.933Z,4.30
2022-10-22T21:43:49.889Z,3.08
2022-10-22T21:46:21.198Z,3.10
2022-10-22T21:48:53.845Z,3.42
2022-10-22T21:56:24.996Z,3.35
2022-10-22T21:58:53.231Z,3.53
2022-10-22T22:01:23.258Z,3.15
2022-10-22T22:06:35.928Z,3.70
2022-10-22T22:09:05.521Z,3.30
2022-10-22T22:11:33.632Z,2.92
2022-10-22T22:14:01.464Z,3.63
2022-10-22T22:16:31.707Z,3.45
2022-10-22T22:19:01.713Z,4.07
2022-10-22T22:21:30.156Z,2.85
2022-10-22T22:23:59.871Z,3.78
2022-10-22T22:26:30.220Z,3.70
2022-10-22T22:28:59.592Z,4.10
2022-10-22T22:31:29.392Z,3.30
2022-10-22T22:34:01.155Z,3.35
2022-10-22T22:36:33.020Z,3.07
2022-10-22T22:39:02.203Z,3.25
2022-10-22T22:41:29.980Z,3.88
2022-10-22T22:43:57.890Z,3.45
2022-10-22T22:46:25.758Z,3.17
2022-10-22T22:48:53.783Z,3.55
2022-10-22T22:51:22.008Z,3.35
2022-10-22T22:53:49.948Z,3.53
2022-10-22T22:56:21.645Z,2.92
2022-10-22T22:58:50.385Z,2.87
2022-10-22T23:01:19.973Z,3.53
2022-10-22T23:03:50.091Z,3.00
2022-10-22T23:06:17.945Z,3.08
2022-10-22T23:08:45.984Z,2.97
2022-10-22T23:11:15.330Z,2.78
2022-10-22T23:13:45.102Z,2.75
2022-10-22T23:16:16.475Z,2.63
2022-10-22T23:18:45.160Z,3.00
2022-10-22T23:21:15.667Z,3.50
2022-10-22T23:23:45.620Z,3.13
2022-10-22T23:26:14.972Z,3.03
2022-10-22T23:28:44.141Z,2.78
2022-10-22T23:31:13.362Z,3.13
2022-10-22T23:33:41.386Z,2.92
2022-10-22T23:36:09.601Z,2.67
2022-10-22T23:38:39.108Z,2.75
2022-10-22T23:41:07.726Z,3.17
2022-10-22T23:43:37.633Z,2.92
2022-10-22T23:46:08.858Z,2.50
2022-10-22T23:48:37.160Z,2.85
2022-10-22T23:51:05.832Z,3.00
2022-10-22T23:53:33.699Z,2.95
2022-10-22T23:56:05.683Z,2.88
2022-10-22T23:58:34.469Z,3.30
